createdAt,value
2018-05-04T00:01:26.184Z,11.30
2018-05-04T00:03:52.492Z,11.30
2018-05-04T00:06:18.768Z,11.30
2018-05-04T00:08:45.057Z,11.30
2018-05-04T00:11:11.365Z,11.30
2018-05-04T00:13:37.638Z,11.30
2018-05-04T00:16:03.918Z,11.20
2018-05-04T00:18:30.283Z,11.20
2018-05-04T00:20:56.617Z,11.10
2018-05-04T00:23:23.983Z,11.00
2018-05-04T00:25:50.347Z,11.00
2018-05-04T00:28:16.683Z,11.00
2018-05-04T00:30:43.323Z,11.00
2018-05-04T00:33:09.732Z,11.00
2018-05-04T00:35:36.092Z,11.00
2018-05-04T00:38:02.346Z,11.00
2018-05-04T00:40:28.631Z,11.00
2018-05-04T00:42:55.274Z,11.00
2018-05-04T00:45:21.572Z,10.90
2018-05-04T00:47:47.859Z,11.00
2018-05-04T00:50:14.126Z,11.00
2018-05-04T00:52:40.400Z,10.90
2018-05-04T00:55:06.642Z,10.90
2018-05-04T00:57:33.320Z,10.90
2018-05-04T01:00:00.028Z,10.90
2018-05-04T01:02:26.579Z,10.90
2018-05-04T01:04:52.970Z,10.80
2018-05-04T01:07:19.407Z,10.90
2018-05-04T01:09:45.943Z,10.80
2018-05-04T01:12:12.205Z,10.80
2018-05-04T01:14:38.627Z,10.80
2018-05-04T01:17:05.162Z,10.60
2018-05-04T01:19:31.626Z,10.60
2018-05-04T01:21:58.659Z,10.60
2018-05-04T01:24:26.827Z,10.60
2018-05-04T01:26:53.623Z,10.60
2018-05-04T01:29:29.172Z,10.60
2018-05-04T01:31:59.326Z,10.50
2018-05-04T01:34:26.395Z,10.50
2018-05-04T01:36:59.296Z,10.50
2018-05-04T01:39:28.383Z,10.50
2018-05-04T01:41:57.287Z,10.50
2018-05-04T01:44:34.743Z,10.50
2018-05-04T01:47:01.016Z,10.50
2018-05-04T01:49:28.501Z,10.50
2018-05-04T01:51:55.492Z,10.50
2018-05-04T01:54:23.617Z,10.50
2018-05-04T01:56:53.659Z,10.50
2018-05-04T01:59:20.164Z,10.40
2018-05-04T02:01:46.478Z,10.30
2018-05-04T02:04:12.918Z,10.30
2018-05-04T02:06:39.382Z,10.30
2018-05-04T02:09:05.685Z,10.30
2018-05-04T02:11:33.091Z,10.30
2018-05-04T02:13:59.428Z,10.30
2018-05-04T02:16:29.502Z,10.30
2018-05-04T02:18:58.314Z,10.30
2018-05-04T02:21:27.350Z,10.30
2018-05-04T02:23:53.851Z,10.30
2018-05-04T02:26:27.452Z,10.30
2018-05-04T02:28:59.716Z,10.30
2018-05-04T02:31:26.122Z,10.30
2018-05-04T02:33:57.293Z,10.30
2018-05-04T02:36:23.631Z,10.30
2018-05-04T02:38:51.217Z,10.30
2018-05-04T02:41:17.934Z,10.20
2018-05-04T02:43:49.144Z,10.20
2018-05-04T02:46:15.996Z,10.20
2018-05-04T02:48:45.597Z,10.10
2018-05-04T02:51:29.290Z,10.10
2018-05-04T02:53:55.739Z,10.10
2018-05-04T02:56:22.164Z,10.10
2018-05-04T02:58:59.408Z,10.10
2018-05-04T03:01:25.767Z,10.10
2018-05-04T03:03:52.115Z,10.10
2018-05-04T03:06:18.500Z,10.10
2018-05-04T03:08:45.540Z,10.00
2018-05-04T03:11:12.574Z,10.00
2018-05-04T03:13:38.943Z,10.00
2018-05-04T03:16:05.239Z,10.00
2018-05-04T03:18:31.576Z,10.00
2018-05-04T03:20:57.859Z,10.00
2018-05-04T03:23:24.249Z,10.00
2018-05-04T03:25:50.533Z,10.00
2018-05-04T03:28:29.620Z,10.00
2018-05-04T03:30:58.462Z,9.90
2018-05-04T03:33:24.776Z,10.00
2018-05-04T03:35:58.460Z,9.90
2018-05-04T03:38:27.720Z,9.90
2018-05-04T03:40:54.601Z,9.90
2018-05-04T03:43:21.300Z,9.90
2018-05-04T03:45:48.021Z,9.80
2018-05-04T03:48:20.284Z,9.80
2018-05-04T03:50:46.647Z,9.80
2018-05-04T03:53:13.091Z,9.80
2018-05-04T03:55:39.385Z,9.80
2018-05-04T03:58:17.819Z,9.90
2018-05-04T04:00:56.141Z,9.80
2018-05-04T04:03:36.117Z,9.80
2018-05-04T04:06:02.664Z,9.80
2018-05-04T04:08:29.161Z,9.80
2018-05-04T04:10:55.458Z,9.70
2018-05-04T04:13:21.696Z,9.80
2018-05-04T04:15:47.989Z,9.70
2018-05-04T04:18:14.548Z,9.80
2018-05-04T04:20:41.080Z,9.80
2018-05-04T04:23:07.281Z,9.80
2018-05-04T04:25:33.684Z,9.80
2018-05-04T04:27:59.936Z,9.90
2018-05-04T04:30:26.175Z,9.80
2018-05-04T04:32:52.412Z,9.80
2018-05-04T04:35:18.776Z,9.80
2018-05-04T04:37:45.156Z,9.80
2018-05-04T04:40:12.353Z,9.80
2018-05-04T04:42:38.588Z,9.80
2018-05-04T04:45:04.880Z,9.90
2018-05-04T04:47:31.237Z,9.90
2018-05-04T04:49:57.474Z,9.90
2018-05-04T04:52:23.774Z,9.90
2018-05-04T04:54:50.770Z,10.00
2018-05-04T04:57:17.072Z,10.00
2018-05-04T04:59:43.330Z,10.00
2018-05-04T05:02:09.600Z,10.00
2018-05-04T05:04:35.886Z,10.10
2018-05-04T05:07:02.141Z,10.00
2018-05-04T05:09:28.387Z,10.10
2018-05-04T05:11:54.701Z,10.20
2018-05-04T05:14:21.001Z,10.20
2018-05-04T05:16:47.268Z,10.30
2018-05-04T05:19:14.460Z,10.40
2018-05-04T05:21:42.047Z,10.40
2018-05-04T05:24:08.567Z,10.40
2018-05-04T05:26:35.624Z,10.60
2018-05-04T05:29:02.543Z,10.60
2018-05-04T05:31:31.292Z,10.60
2018-05-04T05:33:57.582Z,10.60
2018-05-04T05:36:25.148Z,10.70
2018-05-04T05:38:52.220Z,10.80
2018-05-04T05:41:18.666Z,10.80
2018-05-04T05:43:45.092Z,10.80
2018-05-04T05:46:11.560Z,10.90
2018-05-04T05:48:37.925Z,10.90
2018-05-04T05:51:06.317Z,11.00
2018-05-04T05:53:34.220Z,11.10
2018-05-04T05:56:00.621Z,11.20
2018-05-04T05:58:28.046Z,11.30
2018-05-04T06:00:54.290Z,11.40
2018-05-04T06:03:21.048Z,11.50
2018-05-04T06:05:47.815Z,11.50
2018-05-04T06:08:15.063Z,11.60
2018-05-04T06:10:41.442Z,11.60
2018-05-04T06:13:10.614Z,11.70
2018-05-04T06:15:37.161Z,11.70
2018-05-04T06:18:03.420Z,11.80
2018-05-04T06:20:29.711Z,11.60
2018-05-04T06:22:55.944Z,11.80
2018-05-04T06:25:22.791Z,11.90
2018-05-04T06:27:49.041Z,12.00
2018-05-04T06:30:15.306Z,11.90
2018-05-04T06:32:41.707Z,12.00
2018-05-04T06:35:07.977Z,12.00
2018-05-04T06:37:34.245Z,12.00
2018-05-04T06:40:00.569Z,12.00
2018-05-04T06:42:26.807Z,12.20
2018-05-04T06:44:53.055Z,12.30
2018-05-04T06:47:22.261Z,12.50
2018-05-04T06:49:50.389Z,12.50
2018-05-04T06:52:16.859Z,12.50
2018-05-04T06:54:43.095Z,12.60
2018-05-04T06:57:11.786Z,12.70
2018-05-04T06:59:38.162Z,12.90
2018-05-04T07:02:04.432Z,12.90
2018-05-04T07:04:30.726Z,12.90
2018-05-04T07:06:57.758Z,12.90
2018-05-04T07:09:23.994Z,12.90
2018-05-04T07:11:51.693Z,13.00
2018-05-04T07:14:18.078Z,13.00
2018-05-04T07:16:44.311Z,13.00
2018-05-04T07:19:11.491Z,13.00
2018-05-04T07:21:37.786Z,13.00
2018-05-04T07:24:04.130Z,13.10
2018-05-04T07:26:30.505Z,13.20
2018-05-04T07:28:57.525Z,13.50
2018-05-04T07:31:23.773Z,13.40
2018-05-04T07:33:50.034Z,13.60
2018-05-04T07:36:16.610Z,13.70
2018-05-04T07:38:42.917Z,13.40
2018-05-04T07:41:09.214Z,13.30
2018-05-04T07:43:36.382Z,13.50
2018-05-04T07:46:02.701Z,13.60
2018-05-04T07:48:29.068Z,13.80
2018-05-04T07:50:55.368Z,13.70
2018-05-04T07:53:21.644Z,13.80
2018-05-04T07:55:47.950Z,14.00
2018-05-04T07:58:14.634Z,14.00
2018-05-04T08:00:44.624Z,14.20
2018-05-04T08:03:14.823Z,14.20
2018-05-04T08:05:41.199Z,14.40
2018-05-04T08:08:08.868Z,14.40
2018-05-04T08:10:35.381Z,14.70
2018-05-04T08:13:02.569Z,14.80
2018-05-04T08:15:29.369Z,14.90
2018-05-04T08:17:57.253Z,15.00
2018-05-04T08:23:28.007Z,15.30
2018-05-04T08:25:56.033Z,15.30
2018-05-04T08:28:29.256Z,15.10
2018-05-04T08:30:58.784Z,15.30
2018-05-04T08:33:29.420Z,15.40
2018-05-04T08:35:58.266Z,15.40
2018-05-04T08:38:28.237Z,15.50
2018-05-04T08:40:58.367Z,15.50
2018-05-04T08:43:27.967Z,15.50
2018-05-04T08:45:55.960Z,15.70
2018-05-04T08:48:25.870Z,15.80
2018-05-04T08:50:59.448Z,15.90
2018-05-04T08:53:28.858Z,15.90
2018-05-04T08:55:58.449Z,15.90
2018-05-04T08:58:28.808Z,16.10
2018-05-04T09:00:55.401Z,16.20
2018-05-04T09:03:22.455Z,16.40
2018-05-04T09:05:49.520Z,16.40
2018-05-04T09:08:15.881Z,16.60
2018-05-04T09:10:42.264Z,16.70
2018-05-04T09:13:09.112Z,16.70
2018-05-04T09:15:36.757Z,16.70
2018-05-04T09:18:09.551Z,16.60
2018-05-04T09:20:43.078Z,16.50
2018-05-04T09:23:09.867Z,16.70
2018-05-04T09:25:36.785Z,16.80
2018-05-04T09:28:14.731Z,17.00
2018-05-04T09:30:57.702Z,17.10
2018-05-04T09:33:30.617Z,17.10
2018-05-04T09:35:58.125Z,17.00
2018-05-04T09:38:28.397Z,17.20
2018-05-04T09:40:55.672Z,17.30
2018-05-04T09:43:22.747Z,17.50
2018-05-04T09:45:58.332Z,17.50
2018-05-04T09:48:28.603Z,17.70
2018-05-04T09:53:58.578Z,18.00
2018-05-04T09:56:30.071Z,17.90
2018-05-04T09:59:00.204Z,18.20
2018-05-04T10:04:29.114Z,18.60
2018-05-04T10:06:58.977Z,18.50
2018-05-04T10:09:28.436Z,18.30
2018-05-04T10:11:58.787Z,18.60
2018-05-04T10:14:27.588Z,18.50
2018-05-04T10:17:00.403Z,18.50
2018-05-04T10:19:28.200Z,18.50
2018-05-04T10:21:58.412Z,18.70
2018-05-04T10:24:28.144Z,18.90
2018-05-04T10:27:01.594Z,18.80
2018-05-04T10:29:29.939Z,18.60
2018-05-04T10:31:58.567Z,19.10
2018-05-04T10:34:28.676Z,18.80
2018-05-04T10:37:00.410Z,19.50
2018-05-04T10:39:28.442Z,19.60
2018-05-04T10:41:58.445Z,19.70
2018-05-04T10:44:28.422Z,19.80
2018-05-04T10:46:58.754Z,20.00
2018-05-04T10:49:28.937Z,19.70
2018-05-04T10:51:58.836Z,19.70
2018-05-04T10:54:28.130Z,20.00
2018-05-04T10:56:57.940Z,20.20
2018-05-04T10:59:28.378Z,20.50
2018-05-04T11:01:57.267Z,20.60
2018-05-04T11:04:28.396Z,20.60
2018-05-04T11:06:58.013Z,20.90
2018-05-04T11:09:28.119Z,21.00
2018-05-04T11:11:58.780Z,21.00
2018-05-04T11:14:25.251Z,20.90
2018-05-04T11:19:28.454Z,21.00
2018-05-04T11:21:57.267Z,20.90
2018-05-04T11:24:28.029Z,20.90
2018-05-04T11:26:58.787Z,21.40
2018-05-04T11:29:28.096Z,21.00
2018-05-04T11:32:00.498Z,20.60
2018-05-04T11:34:27.993Z,21.10
2018-05-04T11:36:59.785Z,21.90
2018-05-04T11:39:29.472Z,21.90
2018-05-04T11:41:59.039Z,22.10
2018-05-04T11:44:28.445Z,22.00
2018-05-04T11:46:58.388Z,21.90
2018-05-04T11:49:29.015Z,21.60
2018-05-04T11:51:58.511Z,22.20
2018-05-04T11:54:28.668Z,22.60
2018-05-04T11:56:57.618Z,22.30
2018-05-04T11:59:30.292Z,22.40
2018-05-04T12:01:58.686Z,21.80
2018-05-04T12:04:27.787Z,21.90
2018-05-04T12:07:00.652Z,22.80
2018-05-04T12:09:28.110Z,23.50
2018-05-04T12:11:57.887Z,23.50
2018-05-04T12:14:25.087Z,22.80
2018-05-04T12:16:53.386Z,23.60
2018-05-04T12:19:20.368Z,24.10
2018-05-04T12:21:59.661Z,24.10
2018-05-04T12:24:27.260Z,24.40
2018-05-04T12:26:54.705Z,24.10
2018-05-04T12:29:22.161Z,24.70
2018-05-04T12:31:48.514Z,25.30
2018-05-04T12:34:14.923Z,25.50
2018-05-04T12:36:41.895Z,24.70
2018-05-04T12:39:08.232Z,24.70
2018-05-04T12:41:39.354Z,24.80
2018-05-04T12:46:41.121Z,24.50
2018-05-04T12:51:58.869Z,25.90
2018-05-04T12:54:27.691Z,25.70
2018-05-04T12:56:58.303Z,25.60
2018-05-04T12:59:28.186Z,24.50
2018-05-04T13:01:56.472Z,24.50
2018-05-04T13:04:25.876Z,25.30
2018-05-04T13:06:58.423Z,26.30
2018-05-04T13:09:26.612Z,26.90
2018-05-04T13:11:54.077Z,26.00
2018-05-04T13:14:28.953Z,26.20
2018-05-04T13:16:59.119Z,25.60
2018-05-04T13:19:29.003Z,24.80
2018-05-04T13:21:58.753Z,23.80
2018-05-04T13:24:28.494Z,25.20
2018-05-04T13:26:58.430Z,26.30
2018-05-04T13:29:29.132Z,26.60
2018-05-04T13:31:58.713Z,26.30
2018-05-04T13:34:30.935Z,26.60
2018-05-04T13:36:58.836Z,26.20
2018-05-04T13:39:28.535Z,25.50
2018-05-04T13:41:57.851Z,24.40
2018-05-04T13:44:27.603Z,25.10
2018-05-04T13:46:59.927Z,24.50
2018-05-04T13:49:28.456Z,25.20
2018-05-04T13:54:58.437Z,24.70
2018-05-04T13:57:29.666Z,24.50
2018-05-04T14:02:53.162Z,23.40
2018-05-04T14:05:23.552Z,23.00
2018-05-04T14:08:07.816Z,23.60
2018-05-04T14:10:37.526Z,23.30
2018-05-04T14:13:06.616Z,23.50
2018-05-04T14:15:36.805Z,22.60
2018-05-04T14:18:05.805Z,22.50
2018-05-04T14:20:36.923Z,22.50
2018-05-04T14:23:07.902Z,22.30
2018-05-04T14:25:37.796Z,22.40
2018-05-04T14:28:13.937Z,22.00
2018-05-04T14:30:50.747Z,22.30
2018-05-04T14:36:02.733Z,22.20
2018-05-04T14:38:38.436Z,21.70
2018-05-04T14:41:08.796Z,21.60
2018-05-04T14:43:38.372Z,21.60
2018-05-04T14:46:08.099Z,21.70
2018-05-04T14:48:35.814Z,21.60
2018-05-04T14:51:08.427Z,21.40
2018-05-04T14:53:35.901Z,21.30
2018-05-04T14:56:20.858Z,21.10
2018-05-04T14:58:51.708Z,21.20
2018-05-04T15:01:21.901Z,21.40
2018-05-04T15:03:52.547Z,21.10
2018-05-04T15:06:22.650Z,21.40
2018-05-04T15:08:51.048Z,21.40
2018-05-04T15:11:21.972Z,21.50
2018-05-04T15:13:51.684Z,21.50
2018-05-04T15:16:22.209Z,21.30
2018-05-04T15:18:52.371Z,21.10
2018-05-04T15:21:21.910Z,21.10
2018-05-04T15:26:52.191Z,20.90
2018-05-04T15:32:22.753Z,21.10
2018-05-04T15:34:52.469Z,21.00
2018-05-04T15:37:22.081Z,21.00
2018-05-04T15:39:51.689Z,21.10
2018-05-04T15:42:22.394Z,21.00
2018-05-04T15:44:52.157Z,21.10
2018-05-04T15:47:22.130Z,21.00
2018-05-04T15:49:53.448Z,21.00
2018-05-04T15:52:21.838Z,20.80
2018-05-04T15:54:52.803Z,20.90
2018-05-04T15:57:22.284Z,20.90
2018-05-04T15:59:50.801Z,21.00
2018-05-04T16:02:20.609Z,20.80
2018-05-04T16:04:52.282Z,20.90
2018-05-04T16:07:21.763Z,20.90
2018-05-04T16:09:54.653Z,20.60
2018-05-04T16:12:22.070Z,20.50
2018-05-04T16:14:51.522Z,20.40
2018-05-04T16:17:24.171Z,20.60
2018-05-04T16:19:51.548Z,20.60
2018-05-04T16:22:22.062Z,20.90
2018-05-04T16:24:51.898Z,20.80
2018-05-04T16:27:23.470Z,20.70
2018-05-04T16:29:51.167Z,20.60
2018-05-04T16:32:19.711Z,20.50
2018-05-04T16:34:53.284Z,20.30
2018-05-04T16:37:21.132Z,20.30
2018-05-04T16:39:53.761Z,20.40
2018-05-04T16:42:23.910Z,20.40
2018-05-04T16:44:55.278Z,20.40
2018-05-04T16:47:26.617Z,20.30
2018-05-04T16:49:54.957Z,20.20
2018-05-04T16:52:25.134Z,20.30
2018-05-04T16:57:55.666Z,20.20
2018-05-04T17:00:23.998Z,20.30
2018-05-04T17:02:55.299Z,20.30
2018-05-04T17:05:25.591Z,20.20
2018-05-04T17:07:53.974Z,20.10
2018-05-04T17:16:26.292Z,19.70
2018-05-04T17:18:54.708Z,19.70
2018-05-04T17:21:39.963Z,19.70
2018-05-04T17:24:09.109Z,19.80
2018-05-04T17:26:39.041Z,19.80
2018-05-04T17:29:08.820Z,19.70
2018-05-04T17:31:41.675Z,19.70
2018-05-04T17:34:10.374Z,19.60
2018-05-04T17:36:40.050Z,19.60
2018-05-04T17:39:10.875Z,19.50
2018-05-04T17:44:39.671Z,19.40
2018-05-04T17:47:09.856Z,19.10
2018-05-04T17:49:49.940Z,19.10
2018-05-04T17:52:18.338Z,19.10
2018-05-04T17:54:50.697Z,19.00
2018-05-04T17:57:20.080Z,18.90
2018-05-04T17:59:48.311Z,18.90
2018-05-04T18:02:19.052Z,18.80
2018-05-04T18:04:49.280Z,18.70
2018-05-04T18:07:21.467Z,18.60
2018-05-04T18:12:50.922Z,18.40
2018-05-04T18:15:20.960Z,18.40
2018-05-04T18:20:28.602Z,18.30
2018-05-04T18:22:59.623Z,18.10
2018-05-04T18:25:26.232Z,18.00
2018-05-04T18:27:56.154Z,17.90
2018-05-04T18:30:23.334Z,17.80
2018-05-04T18:32:50.508Z,17.80
2018-05-04T18:35:16.924Z,17.70
2018-05-04T18:37:46.657Z,17.80
2018-05-04T18:40:13.498Z,17.80
2018-05-04T18:42:40.845Z,17.80
2018-05-04T18:45:07.159Z,17.70
2018-05-04T18:47:34.219Z,17.60
2018-05-04T18:50:00.606Z,17.50
2018-05-04T18:52:27.850Z,17.40
2018-05-04T18:54:54.125Z,17.50
2018-05-04T18:57:22.175Z,17.50
2018-05-04T18:59:48.516Z,17.40
2018-05-04T19:02:21.746Z,17.40
2018-05-04T19:04:48.113Z,17.40
2018-05-04T19:07:14.391Z,17.30
2018-05-04T19:09:40.824Z,17.20
2018-05-04T19:12:07.027Z,17.20
2018-05-04T19:14:33.321Z,17.10
2018-05-04T19:16:59.645Z,17.10
2018-05-04T19:19:25.925Z,17.00
2018-05-04T19:21:59.466Z,16.90
2018-05-04T19:24:26.610Z,16.80
2018-05-04T19:26:56.074Z,16.80
2018-05-04T19:29:25.278Z,16.70
2018-05-04T19:31:54.896Z,16.60
2018-05-04T19:34:22.960Z,16.60
2018-05-04T19:39:30.569Z,16.50
2018-05-04T19:41:56.810Z,16.40
2018-05-04T19:44:23.074Z,16.40
2018-05-04T19:46:49.663Z,16.50
2018-05-04T19:49:16.042Z,16.40
2018-05-04T19:51:42.596Z,16.30
2018-05-04T19:54:08.923Z,16.30
2018-05-04T19:56:35.373Z,16.30
2018-05-04T19:59:01.967Z,16.20
2018-05-04T20:01:29.274Z,16.10
2018-05-04T20:03:55.791Z,16.10
2018-05-04T20:06:22.169Z,16.00
2018-05-04T20:08:48.482Z,16.00
2018-05-04T20:11:15.068Z,16.00
2018-05-04T20:13:42.201Z,15.90
2018-05-04T20:16:08.431Z,15.90
2018-05-04T20:18:35.316Z,15.90
2018-05-04T20:21:01.787Z,15.80
2018-05-04T20:23:28.941Z,15.80
2018-05-04T20:25:55.405Z,15.70
2018-05-04T20:28:22.940Z,15.60
2018-05-04T20:30:49.917Z,15.60
2018-05-04T20:33:16.418Z,15.60
2018-05-04T20:35:45.344Z,15.50
2018-05-04T20:38:11.693Z,15.50
2018-05-04T20:40:37.995Z,15.50
2018-05-04T20:43:05.661Z,15.40
2018-05-04T20:45:32.500Z,15.40
2018-05-04T20:47:59.246Z,15.40
2018-05-04T20:50:25.691Z,15.30
2018-05-04T20:52:55.314Z,15.30
2018-05-04T20:55:25.582Z,15.30
2018-05-04T20:57:55.937Z,15.20
2018-05-04T21:03:27.949Z,15.20
2018-05-04T21:05:56.396Z,15.10
2018-05-04T21:11:30.824Z,15.00
2018-05-04T21:13:59.205Z,15.00
2018-05-04T21:16:46.679Z,15.00
2018-05-04T21:19:14.851Z,14.90
2018-05-04T21:24:45.333Z,14.90
2018-05-04T21:39:28.334Z,14.70
2018-05-04T21:41:54.775Z,14.70
2018-05-04T21:44:21.981Z,14.70
2018-05-04T21:46:48.308Z,14.80
2018-05-04T21:49:15.923Z,14.80
2018-05-04T21:51:42.157Z,14.80
2018-05-04T21:54:08.460Z,14.80
2018-05-04T21:56:49.848Z,14.70
2018-05-04T22:04:32.014Z,14.60
2018-05-04T22:06:58.543Z,14.60
2018-05-04T22:09:24.889Z,14.60
2018-05-04T22:11:51.670Z,14.70
2018-05-04T23:21:57.291Z,13.40
2018-05-04T23:24:26.540Z,13.30
2018-05-04T23:26:52.959Z,13.30
2018-05-04T23:29:19.566Z,13.30
2018-05-04T23:31:45.920Z,13.20
2018-05-04T23:34:13.514Z,13.20
2018-05-04T23:36:39.817Z,13.20
2018-05-04T23:39:06.302Z,13.10
2018-05-04T23:41:33.443Z,13.10
2018-05-04T23:47:02.814Z,13.00
2018-05-04T23:49:29.162Z,13.00
2018-05-04T23:54:40.375Z,12.90
2018-05-04T23:57:07.037Z,12.90
2018-05-04T23:59:33.728Z,12.80
